sensor_id;sensor_type;location;lat;lon;timestamp;P1;durP1;ratioP1;P2;durP2;ratioP2
16922;SDS011;8578;50.938;13.556;2024-01-07T00:00:22;22.13;;;11.83;;
16922;SDS011;8578;50.938;13.556;2024-01-07T00:02:51;19.80;;;10.37;;
16922;SDS011;8578;50.938;13.556;2024-01-07T00:05:19;19.17;;;9.50;;
16922;SDS011;8578;50.938;13.556;2024-01-07T00:07:47;19.70;;;8.00;;
16922;SDS011;8578;50.938;13.556;2024-01-07T00:10:16;24.27;;;11.20;;
16922;SDS011;8578;50.938;13.556;2024-01-07T00:12:44;23.30;;;12.60;;
16922;SDS011;8578;50.938;13.556;2024-01-07T00:15:11;24.33;;;10.63;;
16922;SDS011;8578;50.938;13.556;2024-01-07T00:17:39;25.90;;;11.97;;
16922;SDS011;8578;50.938;13.556;2024-01-07T00:20:07;21.50;;;10.83;;
16922;SDS011;8578;50.938;13.556;2024-01-07T00:22:36;19.73;;;10.23;;
16922;SDS011;8578;50.938;13.556;2024-01-07T00:25:03;21.30;;;9.40;;
16922;SDS011;8578;50.938;13.556;2024-01-07T00:27:31;21.13;;;10.63;;
16922;SDS011;8578;50.938;13.556;2024-01-07T00:29:58;21.90;;;10.77;;
16922;SDS011;8578;50.938;13.556;2024-01-07T00:32:26;22.30;;;9.97;;
16922;SDS011;8578;50.938;13.556;2024-01-07T00:34:54;15.83;;;8.30;;
16922;SDS011;8578;50.938;13.556;2024-01-07T00:37:22;16.93;;;8.73;;
16922;SDS011;8578;50.938;13.556;2024-01-07T00:39:51;19.37;;;9.50;;
16922;SDS011;8578;50.938;13.556;2024-01-07T00:42:19;18.00;;;9.33;;
16922;SDS011;8578;50.938;13.556;2024-01-07T00:44:46;19.87;;;10.50;;
16922;SDS011;8578;50.938;13.556;2024-01-07T00:47:14;19.03;;;10.20;;
16922;SDS011;8578;50.938;13.556;2024-01-07T00:49:41;19.90;;;10.17;;
16922;SDS011;8578;50.938;13.556;2024-01-07T00:52:09;22.47;;;10.40;;
16922;SDS011;8578;50.938;13.556;2024-01-07T00:54:37;20.90;;;10.37;;
16922;SDS011;8578;50.938;13.556;2024-01-07T00:57:06;21.33;;;10.67;;
16922;SDS011;8578;50.938;13.556;2024-01-07T00:59:33;27.63;;;12.30;;
16922;SDS011;8578;50.938;13.556;2024-01-07T01:02:01;22.27;;;10.40;;
16922;SDS011;8578;50.938;13.556;2024-01-07T01:04:28;23.87;;;10.17;;
16922;SDS011;8578;50.938;13.556;2024-01-07T01:06:56;21.20;;;9.07;;
16922;SDS011;8578;50.938;13.556;2024-01-07T01:09:24;20.63;;;9.63;;
16922;SDS011;8578;50.938;13.556;2024-01-07T01:11:52;22.07;;;10.57;;
16922;SDS011;8578;50.938;13.556;2024-01-07T01:14:20;22.50;;;10.77;;
16922;SDS011;8578;50.938;13.556;2024-01-07T01:16:48;20.83;;;10.70;;
16922;SDS011;8578;50.938;13.556;2024-01-07T01:19:15;20.53;;;9.97;;
16922;SDS011;8578;50.938;13.556;2024-01-07T01:21:44;26.23;;;10.10;;
16922;SDS011;8578;50.938;13.556;2024-01-07T01:24:11;20.10;;;9.90;;
16922;SDS011;8578;50.938;13.556;2024-01-07T01:26:39;19.57;;;10.23;;
16922;SDS011;8578;50.938;13.556;2024-01-07T01:29:06;18.07;;;8.70;;
16922;SDS011;8578;50.938;13.556;2024-01-07T01:31:37;18.70;;;8.87;;
16922;SDS011;8578;50.938;13.556;2024-01-07T01:34:06;20.97;;;9.57;;
16922;SDS011;8578;50.938;13.556;2024-01-07T01:36:33;20.00;;;10.17;;
16922;SDS011;8578;50.938;13.556;2024-01-07T01:39:01;22.27;;;10.90;;
16922;SDS011;8578;50.938;13.556;2024-01-07T01:41:28;19.17;;;9.70;;
16922;SDS011;8578;50.938;13.556;2024-01-07T01:44:00;18.33;;;8.30;;
16922;SDS011;8578;50.938;13.556;2024-01-07T01:46:28;22.27;;;10.50;;
16922;SDS011;8578;50.938;13.556;2024-01-07T01:48:57;19.57;;;8.53;;
16922;SDS011;8578;50.938;13.556;2024-01-07T01:51:25;22.10;;;9.77;;
16922;SDS011;8578;50.938;13.556;2024-01-07T01:53:52;18.03;;;8.87;;
16922;SDS011;8578;50.938;13.556;2024-01-07T01:56:21;23.63;;;9.90;;
16922;SDS011;8578;50.938;13.556;2024-01-07T01:58:49;17.20;;;8.47;;
16922;SDS011;8578;50.938;13.556;2024-01-07T02:01:18;15.20;;;7.13;;
16922;SDS011;8578;50.938;13.556;2024-01-07T02:03:45;23.23;;;9.77;;
16922;SDS011;8578;50.938;13.556;2024-01-07T02:06:14;18.63;;;8.93;;
16922;SDS011;8578;50.938;13.556;2024-01-07T02:08:42;21.43;;;9.27;;
16922;SDS011;8578;50.938;13.556;2024-01-07T02:11:15;17.93;;;8.33;;
16922;SDS011;8578;50.938;13.556;2024-01-07T02:13:43;20.20;;;9.57;;
16922;SDS011;8578;50.938;13.556;2024-01-07T02:16:11;19.20;;;8.47;;
16922;SDS011;8578;50.938;13.556;2024-01-07T02:18:38;21.93;;;9.90;;
16922;SDS011;8578;50.938;13.556;2024-01-07T02:21:08;22.87;;;10.07;;
16922;SDS011;8578;50.938;13.556;2024-01-07T02:23:37;24.13;;;10.20;;
16922;SDS011;8578;50.938;13.556;2024-01-07T02:26:05;20.63;;;8.47;;
16922;SDS011;8578;50.938;13.556;2024-01-07T02:28:33;22.77;;;10.27;;
16922;SDS011;8578;50.938;13.556;2024-01-07T02:31:01;21.23;;;9.83;;
16922;SDS011;8578;50.938;13.556;2024-01-07T02:33:30;19.03;;;9.43;;
16922;SDS011;8578;50.938;13.556;2024-01-07T02:35:58;22.97;;;10.23;;
16922;SDS011;8578;50.938;13.556;2024-01-07T02:38:26;19.80;;;9.40;;
16922;SDS011;8578;50.938;13.556;2024-01-07T02:40:53;20.83;;;9.53;;
16922;SDS011;8578;50.938;13.556;2024-01-07T02:43:22;17.77;;;8.47;;
16922;SDS011;8578;50.938;13.556;2024-01-07T02:45:49;19.43;;;9.00;;
16922;SDS011;8578;50.938;13.556;2024-01-07T02:48:17;22.93;;;9.87;;
16922;SDS011;8578;50.938;13.556;2024-01-07T02:50:45;20.53;;;10.07;;
16922;SDS011;8578;50.938;13.556;2024-01-07T02:53:13;21.70;;;10.00;;
16922;SDS011;8578;50.938;13.556;2024-01-07T02:55:40;19.30;;;8.63;;
16922;SDS011;8578;50.938;13.556;2024-01-07T02:58:08;24.67;;;10.13;;
16922;SDS011;8578;50.938;13.556;2024-01-07T03:00:37;21.10;;;10.00;;
16922;SDS011;8578;50.938;13.556;2024-01-07T03:03:07;20.27;;;9.87;;
16922;SDS011;8578;50.938;13.556;2024-01-07T03:05:36;19.60;;;8.20;;
16922;SDS011;8578;50.938;13.556;2024-01-07T03:08:05;18.30;;;9.20;;
16922;SDS011;8578;50.938;13.556;2024-01-07T03:10:32;21.80;;;10.07;;
16922;SDS011;8578;50.938;13.556;2024-01-07T03:13:00;22.50;;;10.40;;
16922;SDS011;8578;50.938;13.556;2024-01-07T03:15:29;16.03;;;8.57;;
16922;SDS011;8578;50.938;13.556;2024-01-07T03:17:58;20.67;;;9.73;;
16922;SDS011;8578;50.938;13.556;2024-01-07T03:20:25;21.63;;;9.30;;
16922;SDS011;8578;50.938;13.556;2024-01-07T03:22:53;21.80;;;9.30;;
16922;SDS011;8578;50.938;13.556;2024-01-07T03:25:23;22.17;;;9.73;;
16922;SDS011;8578;50.938;13.556;2024-01-07T03:27:50;24.50;;;9.70;;
16922;SDS011;8578;50.938;13.556;2024-01-07T03:30:18;25.63;;;10.07;;
16922;SDS011;8578;50.938;13.556;2024-01-07T03:32:45;21.37;;;10.57;;
16922;SDS011;8578;50.938;13.556;2024-01-07T03:35:15;20.73;;;9.90;;
16922;SDS011;8578;50.938;13.556;2024-01-07T03:37:42;17.17;;;8.10;;
16922;SDS011;8578;50.938;13.556;2024-01-07T03:40:11;18.97;;;8.53;;
16922;SDS011;8578;50.938;13.556;2024-01-07T03:42:39;18.50;;;7.63;;
16922;SDS011;8578;50.938;13.556;2024-01-07T03:45:06;17.97;;;8.27;;
16922;SDS011;8578;50.938;13.556;2024-01-07T03:47:35;15.67;;;8.63;;
16922;SDS011;8578;50.938;13.556;2024-01-07T03:50:04;15.57;;;6.87;;
16922;SDS011;8578;50.938;13.556;2024-01-07T03:52:34;18.53;;;8.30;;
16922;SDS011;8578;50.938;13.556;2024-01-07T03:55:02;17.43;;;8.83;;
16922;SDS011;8578;50.938;13.556;2024-01-07T03:57:30;17.93;;;8.47;;
16922;SDS011;8578;50.938;13.556;2024-01-07T03:59:59;17.77;;;8.50;;
16922;SDS011;8578;50.938;13.556;2024-01-07T04:02:29;15.83;;;8.33;;
16922;SDS011;8578;50.938;13.556;2024-01-07T04:04:57;18.17;;;8.40;;
16922;SDS011;8578;50.938;13.556;2024-01-07T04:07:25;14.90;;;6.70;;
16922;SDS011;8578;50.938;13.556;2024-01-07T04:09:54;16.90;;;7.90;;
16922;SDS011;8578;50.938;13.556;2024-01-07T04:12:21;13.00;;;5.90;;
16922;SDS011;8578;50.938;13.556;2024-01-07T04:14:49;16.73;;;8.03;;
16922;SDS011;8578;50.938;13.556;2024-01-07T04:17:16;16.97;;;8.33;;
16922;SDS011;8578;50.938;13.556;2024-01-07T04:19:44;17.10;;;7.07;;
16922;SDS011;8578;50.938;13.556;2024-01-07T04:22:12;17.57;;;7.30;;
16922;SDS011;8578;50.938;13.556;2024-01-07T04:24:40;14.87;;;7.70;;
16922;SDS011;8578;50.938;13.556;2024-01-07T04:27:10;12.90;;;6.70;;
16922;SDS011;8578;50.938;13.556;2024-01-07T04:29:38;17.83;;;7.87;;
16922;SDS011;8578;50.938;13.556;2024-01-07T04:32:06;16.83;;;7.93;;
16922;SDS011;8578;50.938;13.556;2024-01-07T04:34:34;20.30;;;7.70;;
16922;SDS011;8578;50.938;13.556;2024-01-07T04:37:01;16.53;;;8.67;;
16922;SDS011;8578;50.938;13.556;2024-01-07T04:39:29;12.93;;;6.60;;
16922;SDS011;8578;50.938;13.556;2024-01-07T04:41:56;18.10;;;8.63;;
16922;SDS011;8578;50.938;13.556;2024-01-07T04:44:25;15.77;;;6.37;;
16922;SDS011;8578;50.938;13.556;2024-01-07T04:46:55;13.73;;;6.77;;
16922;SDS011;8578;50.938;13.556;2024-01-07T04:49:22;16.73;;;8.07;;
16922;SDS011;8578;50.938;13.556;2024-01-07T04:51:50;15.53;;;8.17;;
16922;SDS011;8578;50.938;13.556;2024-01-07T04:54:18;18.73;;;8.47;;
16922;SDS011;8578;50.938;13.556;2024-01-07T04:56:45;16.77;;;7.97;;
16922;SDS011;8578;50.938;13.556;2024-01-07T04:59:13;15.67;;;7.90;;
16922;SDS011;8578;50.938;13.556;2024-01-07T05:01:42;15.10;;;6.67;;
16922;SDS011;8578;50.938;13.556;2024-01-07T05:04:09;18.97;;;8.37;;
16922;SDS011;8578;50.938;13.556;2024-01-07T05:06:37;14.23;;;7.60;;
16922;SDS011;8578;50.938;13.556;2024-01-07T05:09:05;15.20;;;7.10;;
16922;SDS011;8578;50.938;13.556;2024-01-07T05:11:33;14.70;;;7.30;;
16922;SDS011;8578;50.938;13.556;2024-01-07T05:14:06;17.00;;;7.50;;
16922;SDS011;8578;50.938;13.556;2024-01-07T05:16:35;13.20;;;6.17;;
16922;SDS011;8578;50.938;13.556;2024-01-07T05:19:03;15.80;;;7.30;;
16922;SDS011;8578;50.938;13.556;2024-01-07T05:21:32;13.43;;;6.27;;
16922;SDS011;8578;50.938;13.556;2024-01-07T05:24:00;18.00;;;7.80;;
16922;SDS011;8578;50.938;13.556;2024-01-07T05:26:28;16.07;;;6.97;;
16922;SDS011;8578;50.938;13.556;2024-01-07T05:28:55;15.47;;;7.00;;
16922;SDS011;8578;50.938;13.556;2024-01-07T05:31:23;15.07;;;7.57;;
16922;SDS011;8578;50.938;13.556;2024-01-07T05:33:50;11.20;;;6.47;;
16922;SDS011;8578;50.938;13.556;2024-01-07T05:36:20;12.40;;;5.80;;
16922;SDS011;8578;50.938;13.556;2024-01-07T05:38:48;15.23;;;6.93;;
16922;SDS011;8578;50.938;13.556;2024-01-07T05:41:17;13.93;;;6.73;;
16922;SDS011;8578;50.938;13.556;2024-01-07T05:43:45;13.50;;;6.60;;
16922;SDS011;8578;50.938;13.556;2024-01-07T05:46:14;15.20;;;7.20;;
16922;SDS011;8578;50.938;13.556;2024-01-07T05:48:41;15.13;;;7.03;;
16922;SDS011;8578;50.938;13.556;2024-01-07T05:51:10;11.23;;;5.90;;
16922;SDS011;8578;50.938;13.556;2024-01-07T05:53:39;12.37;;;5.63;;
16922;SDS011;8578;50.938;13.556;2024-01-07T05:56:07;16.70;;;6.87;;
16922;SDS011;8578;50.938;13.556;2024-01-07T05:58:35;13.57;;;6.13;;
16922;SDS011;8578;50.938;13.556;2024-01-07T06:01:02;12.77;;;5.77;;
16922;SDS011;8578;50.938;13.556;2024-01-07T06:03:31;10.07;;;5.10;;
16922;SDS011;8578;50.938;13.556;2024-01-07T06:05:58;11.70;;;6.13;;
16922;SDS011;8578;50.938;13.556;2024-01-07T06:08:26;13.17;;;5.87;;
16922;SDS011;8578;50.938;13.556;2024-01-07T06:10:55;12.03;;;5.13;;
16922;SDS011;8578;50.938;13.556;2024-01-07T06:13:22;13.20;;;5.77;;
16922;SDS011;8578;50.938;13.556;2024-01-07T06:15:52;10.50;;;5.03;;
16922;SDS011;8578;50.938;13.556;2024-01-07T06:18:20;11.30;;;5.80;;
16922;SDS011;8578;50.938;13.556;2024-01-07T06:20:48;14.97;;;4.90;;
16922;SDS011;8578;50.938;13.556;2024-01-07T06:23:15;12.50;;;6.00;;
16922;SDS011;8578;50.938;13.556;2024-01-07T06:25:45;11.17;;;5.60;;
16922;SDS011;8578;50.938;13.556;2024-01-07T06:28:13;11.77;;;5.80;;
16922;SDS011;8578;50.938;13.556;2024-01-07T06:30:42;13.00;;;6.10;;
16922;SDS011;8578;50.938;13.556;2024-01-07T06:33:10;9.70;;;4.93;;
16922;SDS011;8578;50.938;13.556;2024-01-07T06:35:39;11.77;;;5.43;;
16922;SDS011;8578;50.938;13.556;2024-01-07T06:38:07;14.17;;;6.03;;
16922;SDS011;8578;50.938;13.556;2024-01-07T06:40:34;11.87;;;5.00;;
16922;SDS011;8578;50.938;13.556;2024-01-07T06:43:02;10.27;;;4.57;;
16922;SDS011;8578;50.938;13.556;2024-01-07T06:45:30;11.37;;;5.23;;
16922;SDS011;8578;50.938;13.556;2024-01-07T06:47:58;9.17;;;4.43;;
16922;SDS011;8578;50.938;13.556;2024-01-07T06:50:27;10.33;;;5.27;;
16922;SDS011;8578;50.938;13.556;2024-01-07T06:52:54;10.73;;;5.43;;
16922;SDS011;8578;50.938;13.556;2024-01-07T06:55:22;9.30;;;4.33;;
16922;SDS011;8578;50.938;13.556;2024-01-07T06:57:50;8.03;;;3.83;;
16922;SDS011;8578;50.938;13.556;2024-01-07T07:00:18;8.40;;;5.13;;
16922;SDS011;8578;50.938;13.556;2024-01-07T07:02:47;9.37;;;4.63;;
16922;SDS011;8578;50.938;13.556;2024-01-07T07:05:15;7.43;;;4.23;;
16922;SDS011;8578;50.938;13.556;2024-01-07T07:07:44;12.30;;;5.53;;
16922;SDS011;8578;50.938;13.556;2024-01-07T07:10:12;8.93;;;4.23;;
16922;SDS011;8578;50.938;13.556;2024-01-07T07:12:39;10.93;;;4.80;;
16922;SDS011;8578;50.938;13.556;2024-01-07T07:15:07;9.57;;;4.37;;
16922;SDS011;8578;50.938;13.556;2024-01-07T07:17:37;8.90;;;4.33;;
16922;SDS011;8578;50.938;13.556;2024-01-07T07:20:07;8.77;;;4.27;;
16922;SDS011;8578;50.938;13.556;2024-01-07T07:22:36;10.07;;;4.60;;
16922;SDS011;8578;50.938;13.556;2024-01-07T07:25:04;8.13;;;3.90;;
16922;SDS011;8578;50.938;13.556;2024-01-07T07:27:32;8.83;;;4.10;;
16922;SDS011;8578;50.938;13.556;2024-01-07T07:30:00;7.60;;;3.33;;
16922;SDS011;8578;50.938;13.556;2024-01-07T07:32:28;8.13;;;3.83;;
16922;SDS011;8578;50.938;13.556;2024-01-07T07:34:55;9.23;;;4.07;;
16922;SDS011;8578;50.938;13.556;2024-01-07T07:37:25;6.20;;;4.00;;
16922;SDS011;8578;50.938;13.556;2024-01-07T07:39:52;10.00;;;3.93;;
16922;SDS011;8578;50.938;13.556;2024-01-07T07:42:20;6.77;;;3.90;;
16922;SDS011;8578;50.938;13.556;2024-01-07T07:44:49;4.80;;;2.27;;
16922;SDS011;8578;50.938;13.556;2024-01-07T07:47:16;6.73;;;3.30;;
16922;SDS011;8578;50.938;13.556;2024-01-07T07:49:45;7.97;;;3.80;;
16922;SDS011;8578;50.938;13.556;2024-01-07T07:52:13;6.37;;;3.40;;
16922;SDS011;8578;50.938;13.556;2024-01-07T07:54:42;9.90;;;3.97;;
16922;SDS011;8578;50.938;13.556;2024-01-07T07:57:14;10.50;;;3.83;;
16922;SDS011;8578;50.938;13.556;2024-01-07T07:59:41;5.23;;;3.00;;
16922;SDS011;8578;50.938;13.556;2024-01-07T08:02:09;6.07;;;3.10;;
16922;SDS011;8578;50.938;13.556;2024-01-07T08:04:37;6.30;;;3.17;;
16922;SDS011;8578;50.938;13.556;2024-01-07T08:07:07;5.37;;;2.63;;
16922;SDS011;8578;50.938;13.556;2024-01-07T08:09:35;5.70;;;3.33;;
16922;SDS011;8578;50.938;13.556;2024-01-07T08:12:06;8.03;;;3.70;;
16922;SDS011;8578;50.938;13.556;2024-01-07T08:14:34;6.43;;;3.37;;
16922;SDS011;8578;50.938;13.556;2024-01-07T08:17:02;6.80;;;3.33;;
16922;SDS011;8578;50.938;13.556;2024-01-07T08:19:31;7.33;;;3.13;;
16922;SDS011;8578;50.938;13.556;2024-01-07T08:21:58;7.07;;;3.53;;
16922;SDS011;8578;50.938;13.556;2024-01-07T08:24:26;4.77;;;2.80;;
16922;SDS011;8578;50.938;13.556;2024-01-07T08:26:55;7.13;;;3.17;;
16922;SDS011;8578;50.938;13.556;2024-01-07T08:29:23;4.83;;;2.83;;
16922;SDS011;8578;50.938;13.556;2024-01-07T08:31:51;5.23;;;3.43;;
16922;SDS011;8578;50.938;13.556;2024-01-07T08:34:19;5.87;;;2.60;;
16922;SDS011;8578;50.938;13.556;2024-01-07T08:36:46;6.50;;;3.17;;
16922;SDS011;8578;50.938;13.556;2024-01-07T08:39:14;4.73;;;2.77;;
16922;SDS011;8578;50.938;13.556;2024-01-07T08:41:42;5.43;;;2.60;;
16922;SDS011;8578;50.938;13.556;2024-01-07T08:44:10;5.57;;;3.27;;
16922;SDS011;8578;50.938;13.556;2024-01-07T08:46:39;6.33;;;3.30;;
16922;SDS011;8578;50.938;13.556;2024-01-07T08:49:07;3.47;;;2.03;;
16922;SDS011;8578;50.938;13.556;2024-01-07T08:51:35;4.93;;;2.80;;
16922;SDS011;8578;50.938;13.556;2024-01-07T08:54:07;4.33;;;2.23;;
16922;SDS011;8578;50.938;13.556;2024-01-07T08:56:34;4.83;;;2.70;;
16922;SDS011;8578;50.938;13.556;2024-01-07T08:59:02;4.83;;;2.67;;
16922;SDS011;8578;50.938;13.556;2024-01-07T09:01:30;5.27;;;2.30;;
16922;SDS011;8578;50.938;13.556;2024-01-07T09:03:59;4.67;;;2.57;;
16922;SDS011;8578;50.938;13.556;2024-01-07T09:06:27;3.60;;;2.07;;
16922;SDS011;8578;50.938;13.556;2024-01-07T09:08:54;3.00;;;1.50;;
16922;SDS011;8578;50.938;13.556;2024-01-07T09:11:23;3.67;;;2.27;;
16922;SDS011;8578;50.938;13.556;2024-01-07T09:13:53;3.43;;;2.07;;
16922;SDS011;8578;50.938;13.556;2024-01-07T09:16:20;2.83;;;1.40;;
16922;SDS011;8578;50.938;13.556;2024-01-07T09:18:48;3.67;;;2.03;;
16922;SDS011;8578;50.938;13.556;2024-01-07T09:21:18;3.47;;;2.40;;
16922;SDS011;8578;50.938;13.556;2024-01-07T09:23:46;3.77;;;1.80;;
16922;SDS011;8578;50.938;13.556;2024-01-07T09:26:13;3.17;;;1.77;;
16922;SDS011;8578;50.938;13.556;2024-01-07T09:28:42;3.77;;;1.60;;
16922;SDS011;8578;50.938;13.556;2024-01-07T09:31:10;3.90;;;2.17;;
16922;SDS011;8578;50.938;13.556;2024-01-07T09:33:38;4.80;;;2.27;;
16922;SDS011;8578;50.938;13.556;2024-01-07T09:36:06;3.47;;;2.00;;
16922;SDS011;8578;50.938;13.556;2024-01-07T09:38:52;5.67;;;2.00;;
16922;SDS011;8578;50.938;13.556;2024-01-07T09:41:21;5.23;;;2.23;;
16922;SDS011;8578;50.938;13.556;2024-01-07T09:43:48;3.40;;;1.77;;
16922;SDS011;8578;50.938;13.556;2024-01-07T09:46:16;3.10;;;1.90;;
16922;SDS011;8578;50.938;13.556;2024-01-07T09:48:43;3.73;;;2.17;;
16922;SDS011;8578;50.938;13.556;2024-01-07T09:51:11;3.93;;;2.07;;
16922;SDS011;8578;50.938;13.556;2024-01-07T09:53:40;4.17;;;2.13;;
16922;SDS011;8578;50.938;13.556;2024-01-07T09:56:11;4.07;;;1.93;;
16922;SDS011;8578;50.938;13.556;2024-01-07T09:58:40;2.60;;;1.90;;
16922;SDS011;8578;50.938;13.556;2024-01-07T10:01:08;3.97;;;1.80;;
16922;SDS011;8578;50.938;13.556;2024-01-07T10:03:36;3.43;;;2.00;;
16922;SDS011;8578;50.938;13.556;2024-01-07T10:06:04;3.13;;;1.77;;
16922;SDS011;8578;50.938;13.556;2024-01-07T10:08:32;4.80;;;2.30;;
16922;SDS011;8578;50.938;13.556;2024-01-07T10:10:59;3.60;;;2.03;;
16922;SDS011;8578;50.938;13.556;2024-01-07T10:13:29;4.27;;;2.33;;
16922;SDS011;8578;50.938;13.556;2024-01-07T10:15:58;5.03;;;2.50;;
16922;SDS011;8578;50.938;13.556;2024-01-07T10:18:25;3.43;;;1.87;;
16922;SDS011;8578;50.938;13.556;2024-01-07T10:20:53;3.83;;;2.07;;
16922;SDS011;8578;50.938;13.556;2024-01-07T10:23:22;5.77;;;2.33;;
16922;SDS011;8578;50.938;13.556;2024-01-07T10:25:49;2.63;;;1.50;;
16922;SDS011;8578;50.938;13.556;2024-01-07T10:28:18;5.17;;;2.13;;
16922;SDS011;8578;50.938;13.556;2024-01-07T10:30:49;5.13;;;2.00;;
16922;SDS011;8578;50.938;13.556;2024-01-07T10:33:19;3.40;;;1.87;;
16922;SDS011;8578;50.938;13.556;2024-01-07T10:35:49;3.37;;;1.40;;
16922;SDS011;8578;50.938;13.556;2024-01-07T10:38:18;2.53;;;1.80;;
16922;SDS011;8578;50.938;13.556;2024-01-07T10:40:49;5.23;;;2.13;;
16922;SDS011;8578;50.938;13.556;2024-01-07T10:43:17;2.37;;;1.30;;
16922;SDS011;8578;50.938;13.556;2024-01-07T10:45:47;2.30;;;1.67;;
16922;SDS011;8578;50.938;13.556;2024-01-07T10:48:18;3.93;;;1.97;;
16922;SDS011;8578;50.938;13.556;2024-01-07T10:53:20;3.80;;;2.10;;
16922;SDS011;8578;50.938;13.556;2024-01-07T10:55:54;4.03;;;2.17;;
16922;SDS011;8578;50.938;13.556;2024-01-07T10:58:24;2.50;;;1.67;;
16922;SDS011;8578;50.938;13.556;2024-01-07T11:00:52;3.63;;;1.90;;
16922;SDS011;8578;50.938;13.556;2024-01-07T11:03:24;4.87;;;2.10;;
16922;SDS011;8578;50.938;13.556;2024-01-07T11:05:56;4.63;;;2.07;;
16922;SDS011;8578;50.938;13.556;2024-01-07T11:08:26;1.70;;;1.17;;
16922;SDS011;8578;50.938;13.556;2024-01-07T11:10:57;4.97;;;1.83;;
16922;SDS011;8578;50.938;13.556;2024-01-07T11:13:31;2.73;;;1.57;;
16922;SDS011;8578;50.938;13.556;2024-01-07T11:16:01;2.83;;;1.70;;
16922;SDS011;8578;50.938;13.556;2024-01-07T11:18:31;3.63;;;1.83;;
16922;SDS011;8578;50.938;13.556;2024-01-07T11:21:01;3.53;;;2.03;;
16922;SDS011;8578;50.938;13.556;2024-01-07T11:23:30;4.17;;;1.90;;
16922;SDS011;8578;50.938;13.556;2024-01-07T11:26:00;3.53;;;2.03;;
16922;SDS011;8578;50.938;13.556;2024-01-07T11:31:25;2.63;;;1.53;;
16922;SDS011;8578;50.938;13.556;2024-01-07T11:34:10;5.33;;;2.13;;
16922;SDS011;8578;50.938;13.556;2024-01-07T11:36:48;1.67;;;0.97;;
16922;SDS011;8578;50.938;13.556;2024-01-07T11:39:16;1.33;;;1.07;;
16922;SDS011;8578;50.938;13.556;2024-01-07T11:41:45;2.80;;;1.40;;
16922;SDS011;8578;50.938;13.556;2024-01-07T11:44:13;2.80;;;1.40;;
16922;SDS011;8578;50.938;13.556;2024-01-07T11:46:41;3.97;;;1.97;;
16922;SDS011;8578;50.938;13.556;2024-01-07T11:49:09;3.20;;;1.43;;
16922;SDS011;8578;50.938;13.556;2024-01-07T11:51:39;4.30;;;1.40;;
16922;SDS011;8578;50.938;13.556;2024-01-07T11:54:06;2.93;;;1.47;;
16922;SDS011;8578;50.938;13.556;2024-01-07T11:56:34;3.97;;;1.47;;
16922;SDS011;8578;50.938;13.556;2024-01-07T11:59:02;4.30;;;1.30;;
16922;SDS011;8578;50.938;13.556;2024-01-07T12:01:30;2.50;;;1.57;;
16922;SDS011;8578;50.938;13.556;2024-01-07T12:03:57;2.77;;;1.33;;
16922;SDS011;8578;50.938;13.556;2024-01-07T12:06:25;3.57;;;1.80;;
16922;SDS011;8578;50.938;13.556;2024-01-07T12:08:54;3.10;;;1.80;;
16922;SDS011;8578;50.938;13.556;2024-01-07T12:11:21;4.03;;;1.37;;
16922;SDS011;8578;50.938;13.556;2024-01-07T12:13:51;3.00;;;1.40;;
16922;SDS011;8578;50.938;13.556;2024-01-07T12:16:18;1.47;;;1.13;;
16922;SDS011;8578;50.938;13.556;2024-01-07T12:18:47;2.07;;;1.27;;
16922;SDS011;8578;50.938;13.556;2024-01-07T12:21:18;2.83;;;1.60;;
16922;SDS011;8578;50.938;13.556;2024-01-07T12:23:47;1.50;;;0.90;;
16922;SDS011;8578;50.938;13.556;2024-01-07T12:26:16;3.57;;;1.60;;
16922;SDS011;8578;50.938;13.556;2024-01-07T12:28:45;2.63;;;1.43;;
16922;SDS011;8578;50.938;13.556;2024-01-07T12:31:19;2.37;;;1.23;;
16922;SDS011;8578;50.938;13.556;2024-01-07T12:33:47;1.67;;;1.00;;
16922;SDS011;8578;50.938;13.556;2024-01-07T12:36:19;4.07;;;1.60;;
16922;SDS011;8578;50.938;13.556;2024-01-07T12:38:47;3.00;;;1.50;;
16922;SDS011;8578;50.938;13.556;2024-01-07T12:41:16;2.27;;;1.50;;
16922;SDS011;8578;50.938;13.556;2024-01-07T12:43:43;2.40;;;1.20;;
16922;SDS011;8578;50.938;13.556;2024-01-07T12:46:11;2.70;;;1.20;;
16922;SDS011;8578;50.938;13.556;2024-01-07T12:48:38;2.47;;;1.60;;
16922;SDS011;8578;50.938;13.556;2024-01-07T12:51:06;3.37;;;1.70;;
16922;SDS011;8578;50.938;13.556;2024-01-07T12:53:34;4.67;;;1.80;;
16922;SDS011;8578;50.938;13.556;2024-01-07T12:56:02;2.73;;;1.40;;
16922;SDS011;8578;50.938;13.556;2024-01-07T12:58:31;4.00;;;1.67;;
16922;SDS011;8578;50.938;13.556;2024-01-07T13:00:59;2.03;;;1.40;;
16922;SDS011;8578;50.938;13.556;2024-01-07T13:03:26;2.53;;;1.53;;
16922;SDS011;8578;50.938;13.556;2024-01-07T13:05:54;2.90;;;1.47;;
16922;SDS011;8578;50.938;13.556;2024-01-07T13:08:22;3.23;;;1.80;;
16922;SDS011;8578;50.938;13.556;2024-01-07T13:10:52;2.03;;;1.10;;
16922;SDS011;8578;50.938;13.556;2024-01-07T13:13:20;2.80;;;1.30;;
16922;SDS011;8578;50.938;13.556;2024-01-07T13:15:50;3.50;;;1.30;;
16922;SDS011;8578;50.938;13.556;2024-01-07T13:18:18;2.17;;;1.33;;
16922;SDS011;8578;50.938;13.556;2024-01-07T13:20:46;3.70;;;1.80;;
16922;SDS011;8578;50.938;13.556;2024-01-07T13:23:14;3.27;;;1.80;;
16922;SDS011;8578;50.938;13.556;2024-01-07T13:25:41;2.87;;;1.63;;
16922;SDS011;8578;50.938;13.556;2024-01-07T13:28:08;1.83;;;1.10;;
16922;SDS011;8578;50.938;13.556;2024-01-07T13:30:37;2.27;;;1.20;;
16922;SDS011;8578;50.938;13.556;2024-01-07T13:33:09;3.10;;;1.30;;
16922;SDS011;8578;50.938;13.556;2024-01-07T13:35:37;2.67;;;1.37;;
16922;SDS011;8578;50.938;13.556;2024-01-07T13:38:04;1.40;;;0.93;;
16922;SDS011;8578;50.938;13.556;2024-01-07T13:40:32;2.57;;;0.97;;
16922;SDS011;8578;50.938;13.556;2024-01-07T13:43:03;3.40;;;1.53;;
16922;SDS011;8578;50.938;13.556;2024-01-07T13:45:31;2.60;;;1.30;;
16922;SDS011;8578;50.938;13.556;2024-01-07T13:47:58;3.07;;;1.20;;
16922;SDS011;8578;50.938;13.556;2024-01-07T13:50:27;1.57;;;1.00;;
16922;SDS011;8578;50.938;13.556;2024-01-07T13:52:56;1.20;;;0.70;;
16922;SDS011;8578;50.938;13.556;2024-01-07T13:55:23;2.67;;;1.40;;
16922;SDS011;8578;50.938;13.556;2024-01-07T13:57:51;2.37;;;0.97;;
16922;SDS011;8578;50.938;13.556;2024-01-07T14:00:19;2.17;;;1.00;;
16922;SDS011;8578;50.938;13.556;2024-01-07T14:02:47;3.03;;;1.30;;
16922;SDS011;8578;50.938;13.556;2024-01-07T14:05:15;1.53;;;0.90;;
16922;SDS011;8578;50.938;13.556;2024-01-07T14:07:47;1.37;;;0.77;;
16922;SDS011;8578;50.938;13.556;2024-01-07T14:10:15;2.10;;;1.27;;
16922;SDS011;8578;50.938;13.556;2024-01-07T14:12:45;1.40;;;0.90;;
16922;SDS011;8578;50.938;13.556;2024-01-07T14:15:13;2.03;;;0.93;;
16922;SDS011;8578;50.938;13.556;2024-01-07T14:17:43;1.80;;;0.90;;
16922;SDS011;8578;50.938;13.556;2024-01-07T14:20:12;1.43;;;0.90;;
16922;SDS011;8578;50.938;13.556;2024-01-07T14:22:40;2.73;;;1.10;;
16922;SDS011;8578;50.938;13.556;2024-01-07T14:25:09;3.30;;;1.40;;
16922;SDS011;8578;50.938;13.556;2024-01-07T14:27:38;2.00;;;1.30;;
16922;SDS011;8578;50.938;13.556;2024-01-07T14:30:06;2.20;;;1.27;;
16922;SDS011;8578;50.938;13.556;2024-01-07T14:32:34;1.73;;;1.17;;
16922;SDS011;8578;50.938;13.556;2024-01-07T14:35:04;2.07;;;1.40;;
16922;SDS011;8578;50.938;13.556;2024-01-07T14:37:34;2.43;;;1.27;;
16922;SDS011;8578;50.938;13.556;2024-01-07T14:40:02;1.83;;;1.17;;
16922;SDS011;8578;50.938;13.556;2024-01-07T14:42:32;2.93;;;1.20;;
16922;SDS011;8578;50.938;13.556;2024-01-07T14:44:59;2.47;;;1.10;;
16922;SDS011;8578;50.938;13.556;2024-01-07T14:47:27;1.70;;;1.17;;
16922;SDS011;8578;50.938;13.556;2024-01-07T14:49:55;3.00;;;1.33;;
16922;SDS011;8578;50.938;13.556;2024-01-07T14:52:23;1.87;;;0.90;;